createdAt,value
2018-05-31T00:01:00.421Z,21.40
2018-05-31T00:03:32.969Z,21.40
2018-05-31T00:06:05.528Z,21.40
2018-05-31T00:08:38.129Z,21.40
2018-05-31T00:11:10.674Z,21.40
2018-05-31T00:13:43.222Z,21.40
2018-05-31T00:16:15.794Z,21.40
2018-05-31T00:18:48.333Z,21.40
2018-05-31T00:21:20.894Z,21.40
2018-05-31T00:23:53.465Z,21.40
2018-05-31T00:26:26.037Z,21.40
2018-05-31T00:28:59.371Z,21.40
2018-05-31T00:31:31.917Z,21.40
2018-05-31T00:34:04.530Z,21.40
2018-05-31T00:36:37.922Z,21.30
2018-05-31T00:39:10.492Z,21.30
2018-05-31T00:41:43.037Z,21.30
2018-05-31T00:44:15.601Z,21.30
2018-05-31T00:46:48.185Z,21.30
2018-05-31T00:49:20.742Z,21.20
2018-05-31T00:51:53.300Z,21.30
2018-05-31T00:54:25.841Z,21.20
2018-05-31T00:56:58.497Z,21.20
2018-05-31T00:59:31.035Z,21.10
2018-05-31T01:02:03.735Z,21.10
2018-05-31T01:04:36.311Z,21.00
2018-05-31T01:07:09.055Z,21.00
2018-05-31T01:09:41.624Z,21.00
2018-05-31T01:12:14.205Z,21.00
2018-05-31T01:14:46.746Z,20.90
2018-05-31T01:17:19.425Z,20.90
2018-05-31T01:19:51.964Z,20.90
2018-05-31T01:22:24.526Z,20.80
2018-05-31T01:24:57.073Z,20.70
2018-05-31T01:27:29.659Z,20.70
2018-05-31T01:30:02.197Z,20.70
2018-05-31T01:32:34.934Z,20.60
2018-05-31T01:35:07.529Z,20.60
2018-05-31T01:37:40.842Z,20.50
2018-05-31T01:40:14.152Z,20.50
2018-05-31T01:42:47.484Z,20.50
2018-05-31T01:45:20.017Z,20.50
2018-05-31T01:47:52.597Z,20.50
2018-05-31T01:50:25.136Z,20.40
2018-05-31T01:52:57.694Z,20.40
2018-05-31T01:55:30.223Z,20.30
2018-05-31T01:58:02.760Z,20.30
2018-05-31T02:00:35.279Z,20.30
2018-05-31T02:03:07.811Z,20.20
2018-05-31T02:05:40.335Z,20.20
2018-05-31T02:08:12.912Z,20.20
2018-05-31T02:10:45.440Z,20.10
2018-05-31T02:13:18.852Z,20.10
2018-05-31T02:15:51.392Z,20.00
2018-05-31T02:18:23.938Z,20.00
2018-05-31T02:20:57.224Z,20.00
2018-05-31T02:23:29.777Z,19.90
2018-05-31T02:26:02.313Z,19.90
2018-05-31T02:28:34.868Z,19.90
2018-05-31T02:31:07.401Z,19.80
2018-05-31T02:33:40.724Z,19.80
2018-05-31T02:36:13.248Z,19.80
2018-05-31T02:38:45.785Z,19.80
2018-05-31T02:41:19.081Z,19.70
2018-05-31T02:43:51.648Z,19.70
2018-05-31T02:46:24.180Z,19.70
2018-05-31T02:48:56.741Z,19.70
2018-05-31T02:51:29.276Z,19.60
2018-05-31T02:54:01.817Z,19.60
2018-05-31T02:56:34.361Z,19.60
2018-05-31T02:59:06.944Z,19.60
2018-05-31T03:01:39.476Z,19.60
2018-05-31T03:04:12.012Z,19.60
2018-05-31T03:06:44.532Z,19.60
2018-05-31T03:09:17.148Z,19.50
2018-05-31T03:11:49.691Z,19.50
2018-05-31T03:14:22.216Z,19.50
2018-05-31T03:16:54.743Z,19.50
2018-05-31T03:19:28.043Z,19.50
2018-05-31T03:22:00.573Z,19.50
2018-05-31T03:24:33.134Z,19.50
2018-05-31T03:27:06.428Z,19.50
2018-05-31T03:29:38.964Z,19.40
2018-05-31T03:32:11.512Z,19.40
2018-05-31T03:34:44.835Z,19.40
2018-05-31T03:37:18.140Z,19.40
2018-05-31T03:39:51.464Z,19.40
2018-05-31T03:42:24.041Z,19.40
2018-05-31T03:44:56.929Z,19.40
2018-05-31T03:47:30.240Z,19.40
2018-05-31T03:50:03.672Z,19.30
2018-05-31T03:52:36.964Z,19.30
2018-05-31T03:55:10.272Z,19.30
2018-05-31T03:57:43.564Z,19.30
2018-05-31T04:00:16.124Z,19.30
2018-05-31T04:02:48.684Z,19.30
2018-05-31T04:05:21.241Z,19.30
2018-05-31T04:07:54.577Z,19.30
2018-05-31T04:10:27.149Z,19.30
2018-05-31T04:12:59.738Z,19.30
2018-05-31T04:15:32.266Z,19.30
2018-05-31T04:18:04.783Z,19.30
2018-05-31T04:20:37.335Z,19.30
2018-05-31T04:23:09.887Z,19.30
2018-05-31T04:25:43.224Z,19.40
2018-05-31T04:28:15.747Z,19.40
2018-05-31T04:30:48.300Z,19.50
2018-05-31T04:33:20.828Z,19.60
2018-05-31T04:35:53.380Z,19.70
2018-05-31T04:38:25.913Z,19.80
2018-05-31T04:40:58.472Z,19.90
2018-05-31T04:43:31.018Z,20.00
2018-05-31T04:46:04.363Z,20.10
2018-05-31T04:48:37.687Z,20.20
2018-05-31T04:51:10.253Z,20.20
2018-05-31T04:53:42.776Z,20.30
2018-05-31T04:56:15.335Z,20.30
2018-05-31T04:58:47.867Z,20.40
2018-05-31T05:01:20.429Z,20.40
2018-05-31T05:03:52.953Z,20.50
2018-05-31T05:06:25.506Z,20.50
2018-05-31T05:08:58.032Z,20.60
2018-05-31T05:11:30.586Z,20.60
2018-05-31T05:14:03.115Z,20.70
2018-05-31T05:16:35.671Z,20.70
2018-05-31T05:19:08.223Z,20.80
2018-05-31T05:21:40.803Z,20.90
2018-05-31T05:24:14.108Z,20.90
2018-05-31T05:26:47.411Z,21.00
2018-05-31T05:29:20.718Z,21.00
2018-05-31T05:31:54.060Z,21.10
2018-05-31T05:34:26.592Z,21.00
2018-05-31T05:36:59.155Z,21.10
2018-05-31T05:39:31.710Z,21.20
2018-05-31T05:42:05.032Z,21.20
2018-05-31T05:44:38.480Z,21.30
2018-05-31T05:47:11.052Z,21.30
2018-05-31T05:49:43.595Z,21.30
2018-05-31T05:52:16.176Z,21.40
2018-05-31T05:54:48.768Z,21.50
2018-05-31T05:57:21.332Z,21.50
2018-05-31T05:59:53.867Z,21.60
2018-05-31T06:02:27.184Z,21.70
2018-05-31T06:04:59.723Z,21.70
2018-05-31T06:07:32.341Z,21.80
2018-05-31T06:10:05.689Z,21.90
2018-05-31T06:12:38.212Z,21.90
2018-05-31T06:15:10.752Z,22.00
2018-05-31T06:17:43.320Z,22.10
2018-05-31T06:20:16.620Z,22.20
2018-05-31T06:22:49.164Z,22.20
2018-05-31T06:25:21.696Z,22.30
2018-05-31T06:27:54.260Z,22.40
2018-05-31T06:30:26.813Z,22.40
2018-05-31T06:32:59.378Z,22.40
2018-05-31T06:35:32.725Z,22.60
2018-05-31T06:38:05.298Z,22.60
2018-05-31T06:40:38.589Z,22.70
2018-05-31T06:43:11.925Z,22.70
2018-05-31T06:45:44.501Z,22.70
2018-05-31T06:48:17.847Z,22.80
2018-05-31T06:50:50.375Z,22.80
2018-05-31T06:53:22.923Z,22.90
2018-05-31T06:55:55.508Z,22.90
2018-05-31T06:58:28.071Z,23.00
2018-05-31T07:01:01.359Z,23.20
2018-05-31T07:03:33.908Z,23.10
2018-05-31T07:06:06.453Z,23.20
2018-05-31T07:08:39.756Z,23.40
2018-05-31T07:11:12.277Z,23.30
2018-05-31T07:13:44.844Z,23.50
2018-05-31T07:16:17.371Z,23.50
2018-05-31T07:18:49.924Z,23.60
2018-05-31T07:21:22.453Z,23.70
2018-05-31T07:23:55.025Z,23.80
2018-05-31T07:26:27.555Z,23.80
2018-05-31T07:29:00.093Z,24.00
2018-05-31T07:31:32.612Z,24.00
2018-05-31T07:34:05.148Z,24.10
2018-05-31T07:36:37.688Z,24.10
2018-05-31T07:39:10.248Z,24.30
2018-05-31T07:41:42.788Z,24.40
2018-05-31T07:44:15.361Z,24.40
2018-05-31T07:46:47.883Z,24.50
2018-05-31T07:49:20.483Z,24.60
2018-05-31T07:51:53.011Z,24.70
2018-05-31T07:54:25.591Z,24.70
2018-05-31T07:56:58.149Z,24.80
2018-05-31T07:59:30.719Z,24.90
2018-05-31T08:02:03.247Z,25.00
2018-05-31T08:04:36.579Z,25.10
2018-05-31T08:07:09.116Z,25.10
2018-05-31T08:09:41.647Z,25.20
2018-05-31T08:12:14.189Z,25.30
2018-05-31T08:14:46.727Z,25.40
2018-05-31T08:17:19.252Z,25.50
2018-05-31T08:19:51.826Z,25.60
2018-05-31T08:22:24.350Z,25.60
2018-05-31T08:24:56.884Z,25.70
2018-05-31T08:27:29.436Z,25.80
2018-05-31T08:30:01.990Z,25.90
2018-05-31T08:32:34.537Z,26.00
2018-05-31T08:35:07.278Z,26.10
2018-05-31T08:37:39.811Z,26.10
2018-05-31T08:40:12.352Z,26.20
2018-05-31T08:42:44.899Z,26.30
2018-05-31T08:45:18.220Z,26.50
2018-05-31T08:47:50.755Z,26.50
2018-05-31T08:50:23.292Z,26.60
2018-05-31T08:52:55.844Z,26.70
2018-05-31T08:55:28.399Z,26.80
2018-05-31T08:58:00.916Z,27.00
2018-05-31T09:00:33.452Z,27.10
2018-05-31T09:03:05.981Z,27.20
2018-05-31T09:05:38.540Z,27.40
2018-05-31T09:08:11.065Z,27.50
2018-05-31T09:10:43.622Z,27.60
2018-05-31T09:13:16.156Z,27.70
2018-05-31T09:15:48.703Z,27.90
2018-05-31T09:18:21.240Z,27.90
2018-05-31T09:20:53.800Z,28.10
2018-05-31T09:23:26.316Z,28.20
2018-05-31T09:25:58.852Z,28.40
2018-05-31T09:28:31.407Z,28.50
2018-05-31T09:31:03.936Z,28.60
2018-05-31T09:33:36.474Z,28.70
2018-05-31T09:36:09.025Z,28.90
2018-05-31T09:38:41.546Z,29.10
2018-05-31T09:41:14.136Z,29.20
2018-05-31T09:43:46.615Z,29.40
2018-05-31T09:46:19.184Z,29.50
2018-05-31T09:48:51.700Z,29.60
2018-05-31T09:51:24.252Z,29.80
2018-05-31T09:53:56.776Z,29.90
2018-05-31T09:56:29.328Z,29.90
2018-05-31T09:59:02.608Z,30.10
2018-05-31T10:01:35.157Z,30.20
2018-05-31T10:04:07.673Z,30.30
2018-05-31T10:06:40.194Z,30.40
2018-05-31T10:09:12.714Z,30.50
2018-05-31T10:11:45.251Z,30.60
2018-05-31T10:14:17.772Z,30.70
2018-05-31T10:16:50.311Z,30.80
2018-05-31T10:19:22.828Z,30.90
2018-05-31T10:21:56.144Z,31.20
2018-05-31T10:24:29.433Z,31.30
2018-05-31T10:27:01.981Z,31.30
2018-05-31T10:29:34.501Z,31.20
2018-05-31T10:32:07.051Z,31.30
2018-05-31T10:34:39.573Z,31.30
2018-05-31T10:37:12.150Z,31.40
2018-05-31T10:39:44.674Z,31.40
2018-05-31T10:42:17.209Z,31.30
2018-05-31T10:44:49.724Z,31.40
2018-05-31T10:47:22.272Z,31.30
2018-05-31T10:49:54.791Z,31.40
2018-05-31T10:52:27.340Z,31.50
2018-05-31T10:55:00.942Z,31.50
2018-05-31T10:57:33.499Z,31.80
2018-05-31T11:00:06.020Z,31.90
2018-05-31T11:02:39.343Z,32.10
2018-05-31T11:05:12.644Z,32.20
2018-05-31T11:07:45.960Z,32.30
2018-05-31T11:10:18.475Z,32.30
2018-05-31T11:12:51.016Z,32.40
2018-05-31T11:15:24.299Z,32.50
2018-05-31T11:17:56.833Z,32.50
2018-05-31T11:20:29.367Z,32.50
2018-05-31T11:23:01.907Z,32.60
2018-05-31T11:25:35.192Z,32.70
2018-05-31T11:28:08.503Z,32.80
2018-05-31T11:30:41.804Z,32.90
2018-05-31T11:33:14.344Z,32.90
2018-05-31T11:35:46.860Z,33.10
2018-05-31T11:38:19.411Z,33.10
2018-05-31T11:40:51.932Z,33.20
2018-05-31T11:43:24.472Z,33.40
2018-05-31T11:45:57.761Z,33.50
2018-05-31T11:48:30.315Z,33.50
2018-05-31T11:51:02.839Z,33.60
2018-05-31T11:53:35.376Z,33.70
2018-05-31T11:56:07.907Z,33.70
2018-05-31T11:58:40.452Z,33.90
2018-05-31T12:01:13.222Z,34.00
2018-05-31T12:03:45.807Z,34.10
2018-05-31T12:06:18.324Z,34.20
2018-05-31T12:08:50.859Z,34.10
2018-05-31T12:11:23.371Z,34.10
2018-05-31T12:13:56.691Z,34.00
2018-05-31T12:16:29.979Z,33.90
2018-05-31T12:19:02.523Z,33.90
2018-05-31T12:21:35.036Z,33.80
2018-05-31T12:24:07.595Z,33.90
2018-05-31T12:26:40.110Z,33.90
2018-05-31T12:29:12.645Z,34.00
2018-05-31T12:31:45.931Z,34.20
2018-05-31T12:34:18.493Z,34.10
2018-05-31T12:36:51.023Z,34.20
2018-05-31T12:39:23.568Z,34.20
2018-05-31T12:41:56.085Z,34.30
2018-05-31T12:44:28.640Z,34.40
2018-05-31T12:47:01.177Z,34.40
2018-05-31T12:49:33.727Z,34.40
2018-05-31T12:52:06.244Z,34.20
2018-05-31T12:54:38.776Z,34.20
2018-05-31T12:57:11.303Z,34.30
2018-05-31T12:59:43.862Z,34.50
2018-05-31T13:02:16.404Z,34.60
2018-05-31T13:04:48.972Z,34.60
2018-05-31T13:07:21.495Z,34.60
2018-05-31T13:09:54.036Z,34.50
2018-05-31T13:12:26.595Z,34.60
2018-05-31T13:14:59.207Z,34.50
2018-05-31T13:17:32.451Z,34.70
2018-05-31T13:20:05.014Z,34.70
2018-05-31T13:22:37.539Z,34.80
2018-05-31T13:25:10.085Z,35.00
2018-05-31T13:27:42.605Z,34.90
2018-05-31T13:30:15.155Z,34.90
2018-05-31T13:32:47.676Z,34.90
2018-05-31T13:35:20.237Z,34.90
2018-05-31T13:37:52.753Z,35.00
2018-05-31T13:40:25.323Z,35.10
2018-05-31T13:42:57.849Z,35.00
2018-05-31T13:45:30.382Z,34.90
2018-05-31T13:48:02.896Z,34.80
2018-05-31T13:50:35.443Z,34.70
2018-05-31T13:53:08.724Z,34.60
2018-05-31T13:55:41.276Z,34.50
2018-05-31T13:58:13.792Z,34.40
2018-05-31T14:00:46.329Z,34.60
2018-05-31T14:03:18.846Z,34.40
2018-05-31T14:05:51.405Z,34.40
2018-05-31T14:08:23.924Z,34.40
2018-05-31T14:10:56.474Z,34.50
2018-05-31T14:13:29.751Z,34.70
2018-05-31T14:16:02.310Z,34.70
2018-05-31T14:18:34.833Z,34.60
2018-05-31T14:21:07.388Z,34.70
2018-05-31T14:23:39.918Z,34.70
2018-05-31T14:26:12.457Z,34.60
2018-05-31T14:28:44.983Z,34.50
2018-05-31T14:31:17.546Z,34.30
2018-05-31T14:33:50.073Z,34.20
2018-05-31T14:36:22.624Z,34.10
2018-05-31T14:38:55.144Z,34.10
2018-05-31T14:41:27.723Z,34.00
2018-05-31T14:44:00.240Z,33.90
2018-05-31T14:46:32.782Z,33.90
2018-05-31T14:49:06.115Z,34.00
2018-05-31T14:51:39.399Z,33.80
2018-05-31T14:54:12.755Z,33.80
2018-05-31T14:56:45.346Z,33.80
2018-05-31T14:59:17.830Z,33.70
2018-05-31T15:01:50.393Z,33.70
2018-05-31T15:04:22.911Z,33.80
2018-05-31T15:06:55.481Z,33.70
2018-05-31T15:09:28.013Z,33.40
2018-05-31T15:12:01.333Z,33.40
2018-05-31T15:14:33.857Z,33.40
2018-05-31T15:17:06.431Z,33.20
2018-05-31T15:19:38.948Z,33.10
2018-05-31T15:22:11.485Z,33.00
2018-05-31T15:24:44.047Z,32.90
2018-05-31T15:27:17.376Z,32.80
2018-05-31T15:29:49.901Z,32.70
2018-05-31T15:32:22.468Z,32.70
2018-05-31T15:34:55.014Z,32.70
2018-05-31T15:37:27.559Z,32.60
2018-05-31T15:40:00.081Z,32.60
2018-05-31T15:42:32.659Z,32.40
2018-05-31T15:45:05.176Z,32.40
2018-05-31T15:47:37.728Z,32.10
2018-05-31T15:50:10.256Z,32.10
2018-05-31T15:52:42.814Z,32.10
2018-05-31T15:55:15.343Z,32.00
2018-05-31T15:57:48.647Z,31.80
2018-05-31T16:00:21.947Z,31.80
2018-05-31T16:02:54.505Z,31.70
2018-05-31T16:05:27.037Z,31.70
2018-05-31T16:07:59.599Z,31.60
2018-05-31T16:10:32.238Z,31.50
2018-05-31T16:13:04.815Z,31.40
2018-05-31T16:15:38.091Z,31.30
2018-05-31T16:18:10.648Z,31.30
2018-05-31T16:20:43.165Z,31.30
2018-05-31T16:23:15.749Z,31.30
2018-05-31T16:25:48.267Z,31.30
2018-05-31T16:28:20.808Z,31.20
2018-05-31T16:30:53.323Z,31.10
2018-05-31T16:33:25.927Z,31.10
2018-05-31T16:35:58.448Z,31.10
2018-05-31T16:38:31.745Z,31.10
2018-05-31T16:41:04.272Z,31.10
2018-05-31T16:43:36.796Z,31.20
2018-05-31T16:46:09.346Z,31.20
2018-05-31T16:48:41.916Z,31.20
2018-05-31T16:51:15.224Z,31.20
2018-05-31T16:53:48.566Z,31.20
2018-05-31T16:56:21.104Z,31.20
2018-05-31T16:58:53.649Z,31.20
2018-05-31T17:01:26.159Z,31.10
2018-05-31T17:03:58.712Z,31.10
2018-05-31T17:06:31.236Z,31.10
2018-05-31T17:09:03.788Z,31.00
2018-05-31T17:11:36.310Z,31.00
2018-05-31T17:14:08.852Z,31.00
2018-05-31T17:16:42.153Z,30.90
2018-05-31T17:19:14.696Z,30.90
2018-05-31T17:21:47.225Z,30.80
2018-05-31T17:24:20.523Z,30.80
2018-05-31T17:26:53.039Z,30.70
2018-05-31T17:29:25.655Z,30.70
2018-05-31T17:31:58.244Z,30.70
2018-05-31T17:34:30.824Z,30.70
2018-05-31T17:37:03.381Z,30.60
2018-05-31T17:39:36.709Z,30.60
2018-05-31T17:42:09.993Z,30.60
2018-05-31T17:44:42.547Z,30.60
2018-05-31T17:47:15.218Z,30.60
2018-05-31T17:49:48.593Z,30.60
2018-05-31T17:52:21.152Z,30.60
2018-05-31T17:54:53.916Z,30.50
2018-05-31T17:57:26.445Z,30.60
2018-05-31T17:59:58.995Z,30.50
2018-05-31T18:02:31.511Z,30.50
2018-05-31T18:05:04.091Z,30.50
2018-05-31T18:07:36.616Z,30.50
2018-05-31T18:10:09.261Z,30.50
2018-05-31T18:12:41.805Z,30.40
2018-05-31T18:15:15.104Z,30.40
2018-05-31T18:17:47.619Z,30.40
2018-05-31T18:20:20.171Z,30.40
2018-05-31T18:22:52.691Z,30.30
2018-05-31T18:25:25.995Z,30.30
2018-05-31T18:27:58.515Z,30.30
2018-05-31T18:30:31.106Z,30.20
2018-05-31T18:33:03.669Z,30.20
2018-05-31T18:35:36.998Z,30.10
2018-05-31T18:38:09.547Z,30.00
2018-05-31T18:40:42.124Z,30.00
2018-05-31T18:43:14.700Z,29.90
2018-05-31T18:45:47.237Z,29.90
2018-05-31T18:48:20.548Z,29.70
2018-05-31T18:50:53.861Z,29.70
2018-05-31T18:53:26.388Z,29.60
2018-05-31T18:55:58.940Z,29.60
2018-05-31T18:58:31.470Z,29.50
2018-05-31T19:01:04.021Z,29.50
2018-05-31T19:03:36.565Z,29.40
2018-05-31T19:06:09.117Z,29.30
2018-05-31T19:08:41.657Z,29.20
2018-05-31T19:11:14.216Z,29.20
2018-05-31T19:13:58.052Z,29.10
2018-05-31T19:16:30.586Z,29.00
2018-05-31T19:19:08.779Z,29.00
2018-05-31T19:21:41.311Z,28.90
2018-05-31T19:24:19.612Z,28.80
2018-05-31T19:26:53.200Z,28.70
2018-05-31T19:29:25.725Z,28.60
2018-05-31T19:31:58.267Z,28.50
2018-05-31T19:34:30.909Z,28.40
2018-05-31T19:37:09.080Z,28.30
2018-05-31T19:39:41.622Z,28.20
2018-05-31T19:42:19.937Z,28.10
2018-05-31T19:44:52.478Z,28.10
2018-05-31T19:47:25.780Z,27.90
2018-05-31T19:49:58.299Z,27.90
2018-05-31T19:52:36.608Z,27.80
2018-05-31T19:55:09.136Z,27.70
2018-05-31T19:57:47.316Z,27.60
2018-05-31T20:00:25.400Z,27.50
2018-05-31T20:03:05.628Z,27.40
2018-05-31T20:05:38.145Z,27.40
2018-05-31T20:08:10.704Z,27.30
2018-05-31T20:10:43.232Z,27.30
2018-05-31T20:13:15.779Z,27.10
2018-05-31T20:15:48.301Z,27.10
2018-05-31T20:18:20.859Z,27.00
2018-05-31T20:20:53.419Z,27.00
2018-05-31T20:23:25.924Z,26.90
2018-05-31T20:25:58.440Z,26.80
2018-05-31T20:28:30.994Z,26.70
2018-05-31T20:31:03.527Z,26.70
2018-05-31T20:33:36.083Z,26.60
2018-05-31T20:36:08.600Z,26.60
2018-05-31T20:38:41.183Z,26.50
2018-05-31T20:41:13.684Z,26.50
2018-05-31T20:43:46.242Z,26.40
2018-05-31T20:46:18.752Z,26.30
2018-05-31T20:48:51.311Z,26.30
2018-05-31T20:51:23.844Z,26.20
2018-05-31T20:53:56.386Z,26.20
2018-05-31T20:56:28.905Z,26.10
2018-05-31T20:59:01.445Z,26.00
2018-05-31T21:01:34.737Z,25.90
2018-05-31T21:04:07.313Z,25.90
2018-05-31T21:06:39.834Z,25.90
2018-05-31T21:09:13.152Z,25.80
2018-05-31T21:11:45.726Z,25.80
2018-05-31T21:14:18.228Z,25.70
2018-05-31T21:16:51.507Z,25.60
2018-05-31T21:19:24.063Z,25.60
2018-05-31T21:21:56.588Z,25.60
2018-05-31T21:24:29.137Z,25.60
2018-05-31T21:27:01.652Z,25.50
2018-05-31T21:29:38.221Z,25.50
2018-05-31T21:32:10.744Z,25.40
2018-05-31T21:34:43.275Z,25.40
2018-05-31T21:37:15.797Z,25.40
2018-05-31T21:39:48.348Z,25.30
2018-05-31T21:42:20.872Z,25.30
2018-05-31T21:44:53.423Z,25.30
2018-05-31T21:47:25.943Z,25.20
2018-05-31T21:49:58.493Z,25.20
2018-05-31T21:52:31.781Z,25.20
2018-05-31T21:55:04.335Z,25.20
2018-05-31T21:57:36.868Z,25.20
2018-05-31T22:00:09.406Z,25.10
2018-05-31T22:02:41.944Z,25.10
2018-05-31T22:05:14.492Z,25.10
2018-05-31T22:07:47.023Z,25.10
2018-05-31T22:10:19.652Z,25.10
2018-05-31T22:12:52.185Z,25.10
2018-05-31T22:15:24.793Z,25.10
2018-05-31T22:17:58.129Z,25.10
2018-05-31T22:20:30.671Z,25.00
2018-05-31T22:23:03.209Z,25.10
2018-05-31T22:25:35.763Z,25.00
2018-05-31T22:28:08.292Z,25.00
2018-05-31T22:30:40.839Z,24.90
2018-05-31T22:33:13.369Z,25.00
2018-05-31T22:35:45.916Z,24.90
2018-05-31T22:38:18.436Z,24.90
2018-05-31T22:40:51.756Z,24.90
2018-05-31T22:43:24.272Z,24.90
2018-05-31T22:45:56.827Z,24.80
2018-05-31T22:48:29.359Z,24.80
2018-05-31T22:51:01.924Z,24.80
2018-05-31T22:53:34.444Z,24.80
2018-05-31T22:56:07.008Z,24.70
2018-05-31T22:58:39.533Z,24.60
2018-05-31T23:01:12.089Z,24.60
2018-05-31T23:03:44.616Z,24.60
2018-05-31T23:06:17.157Z,24.50
2018-05-31T23:08:49.675Z,24.50
2018-05-31T23:11:23.215Z,24.40
2018-05-31T23:13:55.732Z,24.40
2018-05-31T23:16:29.079Z,24.30
2018-05-31T23:19:01.608Z,24.30
2018-05-31T23:21:34.168Z,24.20
2018-05-31T23:24:06.687Z,24.20
2018-05-31T23:26:39.225Z,24.10
2018-05-31T23:29:11.752Z,24.10
2018-05-31T23:31:44.316Z,24.10
2018-05-31T23:34:16.850Z,24.10
2018-05-31T23:36:49.427Z,24.10
2018-05-31T23:39:22.006Z,24.00
2018-05-31T23:41:54.528Z,24.00
2018-05-31T23:44:27.819Z,23.90
2018-05-31T23:47:00.369Z,23.90
2018-05-31T23:49:32.927Z,23.90
2018-05-31T23:52:06.264Z,23.90
2018-05-31T23:54:38.844Z,23.90
2018-05-31T23:57:12.152Z,23.80
2018-05-31T23:59:44.731Z,23.80
